sensor_id;sensor_type;location;lat;lon;timestamp;temperature;humidity
68867;SHT30;56451;44.804;20.476;2023-07-31T00:01:49;24.14;72.31
68867;SHT30;56451;44.804;20.476;2023-07-31T00:04:15;24.13;72.32
68867;SHT30;56451;44.804;20.476;2023-07-31T00:06:41;24.14;72.35
68867;SHT30;56451;44.804;20.476;2023-07-31T00:09:07;24.13;72.42
68867;SHT30;56451;44.804;20.476;2023-07-31T00:11:32;24.11;72.48
68867;SHT30;56451;44.804;20.476;2023-07-31T00:13:58;24.10;72.39
68867;SHT30;56451;44.804;20.476;2023-07-31T00:16:24;24.11;72.47
68867;SHT30;56451;44.804;20.476;2023-07-31T00:18:50;24.04;72.72
68867;SHT30;56451;44.804;20.476;2023-07-31T00:21:16;24.00;72.85
68867;SHT30;56451;44.804;20.476;2023-07-31T00:23:42;23.99;72.90
68867;SHT30;56451;44.804;20.476;2023-07-31T00:26:08;23.94;73.05
68867;SHT30;56451;44.804;20.476;2023-07-31T00:28:34;23.93;73.12
68867;SHT30;56451;44.804;20.476;2023-07-31T00:31:00;23.94;73.18
68867;SHT30;56451;44.804;20.476;2023-07-31T00:33:27;23.94;73.14
68867;SHT30;56451;44.804;20.476;2023-07-31T00:35:53;23.94;73.19
68867;SHT30;56451;44.804;20.476;2023-07-31T00:38:19;23.87;73.36
68867;SHT30;56451;44.804;20.476;2023-07-31T00:40:45;23.81;73.46
68867;SHT30;56451;44.804;20.476;2023-07-31T00:43:10;23.81;73.52
68867;SHT30;56451;44.804;20.476;2023-07-31T00:45:36;23.80;73.51
68867;SHT30;56451;44.804;20.476;2023-07-31T00:48:03;23.80;73.50
68867;SHT30;56451;44.804;20.476;2023-07-31T00:50:33;23.81;73.36
68867;SHT30;56451;44.804;20.476;2023-07-31T00:52:59;23.77;73.49
68867;SHT30;56451;44.804;20.476;2023-07-31T00:55:25;23.79;73.54
68867;SHT30;56451;44.804;20.476;2023-07-31T00:57:50;23.79;73.57
68867;SHT30;56451;44.804;20.476;2023-07-31T01:00:18;23.74;73.61
68867;SHT30;56451;44.804;20.476;2023-07-31T01:02:44;23.70;73.83
68867;SHT30;56451;44.804;20.476;2023-07-31T01:05:10;23.74;73.78
68867;SHT30;56451;44.804;20.476;2023-07-31T01:07:59;23.84;73.31
68867;SHT30;56451;44.804;20.476;2023-07-31T01:10:32;23.86;73.14
68867;SHT30;56451;44.804;20.476;2023-07-31T01:13:01;23.83;73.02
68867;SHT30;56451;44.804;20.476;2023-07-31T01:15:29;23.83;73.07
68867;SHT30;56451;44.804;20.476;2023-07-31T01:17:55;23.80;73.26
68867;SHT30;56451;44.804;20.476;2023-07-31T01:20:23;23.81;73.24
68867;SHT30;56451;44.804;20.476;2023-07-31T01:31:22;23.73;73.25
68867;SHT30;56451;44.804;20.476;2023-07-31T01:33:50;23.73;73.34
68867;SHT30;56451;44.804;20.476;2023-07-31T01:36:18;23.69;73.33
68867;SHT30;56451;44.804;20.476;2023-07-31T01:38:44;23.69;73.34
68867;SHT30;56451;44.804;20.476;2023-07-31T01:41:10;23.67;73.43
68867;SHT30;56451;44.804;20.476;2023-07-31T01:43:37;23.60;73.73
68867;SHT30;56451;44.804;20.476;2023-07-31T01:46:04;23.56;73.84
68867;SHT30;56451;44.804;20.476;2023-07-31T01:48:30;23.55;74.02
68867;SHT30;56451;44.804;20.476;2023-07-31T01:51:01;23.49;74.09
68867;SHT30;56451;44.804;20.476;2023-07-31T01:53:28;23.46;74.24
68867;SHT30;56451;44.804;20.476;2023-07-31T01:55:54;23.39;74.67
68867;SHT30;56451;44.804;20.476;2023-07-31T01:58:20;23.37;74.56
68867;SHT30;56451;44.804;20.476;2023-07-31T02:00:46;23.33;74.55
68867;SHT30;56451;44.804;20.476;2023-07-31T02:03:12;23.35;74.60
68867;SHT30;56451;44.804;20.476;2023-07-31T02:05:56;23.32;74.62
68867;SHT30;56451;44.804;20.476;2023-07-31T02:08:24;23.32;74.31
68867;SHT30;56451;44.804;20.476;2023-07-31T02:10:51;23.37;74.41
68867;SHT30;56451;44.804;20.476;2023-07-31T02:13:17;23.33;74.44
68867;SHT30;56451;44.804;20.476;2023-07-31T02:15:43;23.33;74.42
68867;SHT30;56451;44.804;20.476;2023-07-31T02:18:09;23.35;74.27
68867;SHT30;56451;44.804;20.476;2023-07-31T02:20:35;23.35;74.15
68867;SHT30;56451;44.804;20.476;2023-07-31T02:23:01;23.29;74.51
68867;SHT30;56451;44.804;20.476;2023-07-31T02:25:28;23.31;74.57
68867;SHT30;56451;44.804;20.476;2023-07-31T02:27:53;23.32;74.48
68867;SHT30;56451;44.804;20.476;2023-07-31T02:30:19;23.33;74.50
68867;SHT30;56451;44.804;20.476;2023-07-31T02:32:45;23.33;74.54
68867;SHT30;56451;44.804;20.476;2023-07-31T02:35:11;23.33;74.69
68867;SHT30;56451;44.804;20.476;2023-07-31T02:37:42;23.31;74.76
68867;SHT30;56451;44.804;20.476;2023-07-31T02:40:08;23.25;74.98
68867;SHT30;56451;44.804;20.476;2023-07-31T02:42:34;23.26;74.99
68867;SHT30;56451;44.804;20.476;2023-07-31T02:45:00;23.26;75.09
68867;SHT30;56451;44.804;20.476;2023-07-31T02:47:26;23.23;75.24
68867;SHT30;56451;44.804;20.476;2023-07-31T02:49:52;23.22;75.23
68867;SHT30;56451;44.804;20.476;2023-07-31T02:52:18;23.23;75.37
68867;SHT30;56451;44.804;20.476;2023-07-31T02:54:44;23.23;75.36
68867;SHT30;56451;44.804;20.476;2023-07-31T02:57:10;23.29;75.31
68867;SHT30;56451;44.804;20.476;2023-07-31T02:59:36;23.25;75.39
68867;SHT30;56451;44.804;20.476;2023-07-31T03:02:02;23.22;75.45
68867;SHT30;56451;44.804;20.476;2023-07-31T03:04:28;23.21;75.59
68867;SHT30;56451;44.804;20.476;2023-07-31T03:06:55;23.16;75.76
68867;SHT30;56451;44.804;20.476;2023-07-31T03:09:21;23.11;76.05
68867;SHT30;56451;44.804;20.476;2023-07-31T03:11:47;23.12;76.05
68867;SHT30;56451;44.804;20.476;2023-07-31T03:14:12;23.04;76.26
68867;SHT30;56451;44.804;20.476;2023-07-31T03:16:38;23.07;76.39
68867;SHT30;56451;44.804;20.476;2023-07-31T03:19:04;23.00;76.55
68867;SHT30;56451;44.804;20.476;2023-07-31T03:21:30;23.04;76.47
68867;SHT30;56451;44.804;20.476;2023-07-31T03:23:56;22.97;76.63
68867;SHT30;56451;44.804;20.476;2023-07-31T03:26:22;23.00;76.59
68867;SHT30;56451;44.804;20.476;2023-07-31T03:28:48;23.00;76.57
68867;SHT30;56451;44.804;20.476;2023-07-31T03:31:15;22.95;76.76
68867;SHT30;56451;44.804;20.476;2023-07-31T03:33:41;22.97;76.79
68867;SHT30;56451;44.804;20.476;2023-07-31T03:36:07;22.91;77.04
68867;SHT30;56451;44.804;20.476;2023-07-31T03:38:34;22.88;77.05
68867;SHT30;56451;44.804;20.476;2023-07-31T03:41:00;22.88;77.10
68867;SHT30;56451;44.804;20.476;2023-07-31T03:43:28;22.90;77.27
68867;SHT30;56451;44.804;20.476;2023-07-31T03:45:54;22.87;77.04
68867;SHT30;56451;44.804;20.476;2023-07-31T03:48:19;22.86;77.07
68867;SHT30;56451;44.804;20.476;2023-07-31T03:50:45;22.86;77.14
68867;SHT30;56451;44.804;20.476;2023-07-31T03:53:11;22.81;77.08
68867;SHT30;56451;44.804;20.476;2023-07-31T03:55:37;22.81;77.10
68867;SHT30;56451;44.804;20.476;2023-07-31T03:58:03;22.75;77.32
68867;SHT30;56451;44.804;20.476;2023-07-31T04:00:29;22.78;77.11
68867;SHT30;56451;44.804;20.476;2023-07-31T04:02:55;22.77;77.18
68867;SHT30;56451;44.804;20.476;2023-07-31T04:05:21;22.75;77.15
68867;SHT30;56451;44.804;20.476;2023-07-31T04:07:47;22.74;77.09
68867;SHT30;56451;44.804;20.476;2023-07-31T04:10:13;22.81;76.79
68867;SHT30;56451;44.804;20.476;2023-07-31T04:12:39;22.83;76.57
68867;SHT30;56451;44.804;20.476;2023-07-31T04:15:05;22.84;76.26
68867;SHT30;56451;44.804;20.476;2023-07-31T04:17:31;22.83;76.15
68867;SHT30;56451;44.804;20.476;2023-07-31T04:19:57;22.83;75.82
68867;SHT30;56451;44.804;20.476;2023-07-31T04:22:23;22.78;75.61
68867;SHT30;56451;44.804;20.476;2023-07-31T04:24:49;22.77;75.79
68867;SHT30;56451;44.804;20.476;2023-07-31T04:27:15;22.78;75.68
68867;SHT30;56451;44.804;20.476;2023-07-31T04:29:41;22.81;75.54
68867;SHT30;56451;44.804;20.476;2023-07-31T04:32:08;22.83;75.31
68867;SHT30;56451;44.804;20.476;2023-07-31T04:34:34;22.84;75.10
68867;SHT30;56451;44.804;20.476;2023-07-31T04:37:00;22.80;75.14
68867;SHT30;56451;44.804;20.476;2023-07-31T04:39:26;22.84;74.93
68867;SHT30;56451;44.804;20.476;2023-07-31T04:41:52;22.83;74.86
68867;SHT30;56451;44.804;20.476;2023-07-31T04:44:18;22.83;74.89
68867;SHT30;56451;44.804;20.476;2023-07-31T04:46:43;22.81;74.90
68867;SHT30;56451;44.804;20.476;2023-07-31T04:49:11;22.80;74.53
68867;SHT30;56451;44.804;20.476;2023-07-31T04:51:37;22.71;74.95
68867;SHT30;56451;44.804;20.476;2023-07-31T04:54:03;22.61;75.16
68867;SHT30;56451;44.804;20.476;2023-07-31T04:56:29;22.57;75.38
68867;SHT30;56451;44.804;20.476;2023-07-31T04:58:55;22.56;75.16
68867;SHT30;56451;44.804;20.476;2023-07-31T05:01:21;22.54;75.19
68867;SHT30;56451;44.804;20.476;2023-07-31T05:03:46;22.50;75.24
68867;SHT30;56451;44.804;20.476;2023-07-31T05:06:12;22.49;74.96
68867;SHT30;56451;44.804;20.476;2023-07-31T05:08:40;22.46;75.23
68867;SHT30;56451;44.804;20.476;2023-07-31T05:11:06;22.40;75.49
68867;SHT30;56451;44.804;20.476;2023-07-31T05:13:32;22.40;75.32
68867;SHT30;56451;44.804;20.476;2023-07-31T05:15:58;22.37;75.54
68867;SHT30;56451;44.804;20.476;2023-07-31T05:18:24;22.32;75.74
68867;SHT30;56451;44.804;20.476;2023-07-31T05:20:50;22.36;75.63
68867;SHT30;56451;44.804;20.476;2023-07-31T05:23:17;22.36;75.71
68867;SHT30;56451;44.804;20.476;2023-07-31T05:25:42;22.42;75.26
68867;SHT30;56451;44.804;20.476;2023-07-31T05:28:08;22.46;75.30
68867;SHT30;56451;44.804;20.476;2023-07-31T05:30:34;22.47;75.26
68867;SHT30;56451;44.804;20.476;2023-07-31T05:33:00;22.50;75.29
68867;SHT30;56451;44.804;20.476;2023-07-31T05:35:26;22.52;75.27
68867;SHT30;56451;44.804;20.476;2023-07-31T05:37:52;22.57;74.96
68867;SHT30;56451;44.804;20.476;2023-07-31T05:40:18;22.64;74.82
68867;SHT30;56451;44.804;20.476;2023-07-31T05:42:44;22.68;74.67
68867;SHT30;56451;44.804;20.476;2023-07-31T05:45:10;22.74;74.41
68867;SHT30;56451;44.804;20.476;2023-07-31T05:47:35;22.74;74.44
68867;SHT30;56451;44.804;20.476;2023-07-31T05:50:02;22.73;74.48
68867;SHT30;56451;44.804;20.476;2023-07-31T05:52:27;22.70;74.44
68867;SHT30;56451;44.804;20.476;2023-07-31T05:54:54;22.75;74.35
68867;SHT30;56451;44.804;20.476;2023-07-31T05:57:20;22.73;73.89
68867;SHT30;56451;44.804;20.476;2023-07-31T05:59:46;22.75;74.28
68867;SHT30;56451;44.804;20.476;2023-07-31T06:02:12;22.80;74.16
68867;SHT30;56451;44.804;20.476;2023-07-31T06:04:38;22.78;74.13
68867;SHT30;56451;44.804;20.476;2023-07-31T06:07:04;22.78;74.01
68867;SHT30;56451;44.804;20.476;2023-07-31T06:09:30;22.81;73.86
68867;SHT30;56451;44.804;20.476;2023-07-31T06:11:56;22.86;73.82
68867;SHT30;56451;44.804;20.476;2023-07-31T06:14:22;22.87;73.68
68867;SHT30;56451;44.804;20.476;2023-07-31T06:16:48;22.88;73.55
68867;SHT30;56451;44.804;20.476;2023-07-31T06:19:14;22.88;73.36
68867;SHT30;56451;44.804;20.476;2023-07-31T06:21:40;22.87;73.61
68867;SHT30;56451;44.804;20.476;2023-07-31T06:24:08;22.83;74.01
68867;SHT30;56451;44.804;20.476;2023-07-31T06:26:34;22.83;74.20
68867;SHT30;56451;44.804;20.476;2023-07-31T06:29:00;22.90;74.05
68867;SHT30;56451;44.804;20.476;2023-07-31T06:31:26;22.95;73.83
68867;SHT30;56451;44.804;20.476;2023-07-31T06:33:52;23.01;74.04
68867;SHT30;56451;44.804;20.476;2023-07-31T06:36:18;23.10;73.28
68867;SHT30;56451;44.804;20.476;2023-07-31T06:38:44;23.12;72.79
68867;SHT30;56451;44.804;20.476;2023-07-31T06:41:10;23.12;73.10
68867;SHT30;56451;44.804;20.476;2023-07-31T06:43:36;23.15;72.55
68867;SHT30;56451;44.804;20.476;2023-07-31T06:46:06;23.18;72.20
68867;SHT30;56451;44.804;20.476;2023-07-31T06:48:33;23.19;71.82
68867;SHT30;56451;44.804;20.476;2023-07-31T06:51:00;23.16;72.38
68867;SHT30;56451;44.804;20.476;2023-07-31T06:53:26;23.26;72.14
68867;SHT30;56451;44.804;20.476;2023-07-31T06:55:52;23.29;71.44
68867;SHT30;56451;44.804;20.476;2023-07-31T06:58:18;23.38;71.50
68867;SHT30;56451;44.804;20.476;2023-07-31T07:00:44;23.42;71.29
68867;SHT30;56451;44.804;20.476;2023-07-31T07:03:10;23.41;71.10
68867;SHT30;56451;44.804;20.476;2023-07-31T07:05:36;23.39;71.06
68867;SHT30;56451;44.804;20.476;2023-07-31T07:08:02;23.46;71.07
68867;SHT30;56451;44.804;20.476;2023-07-31T07:10:27;23.55;70.58
68867;SHT30;56451;44.804;20.476;2023-07-31T07:12:54;23.62;70.23
68867;SHT30;56451;44.804;20.476;2023-07-31T07:15:21;23.73;69.90
68867;SHT30;56451;44.804;20.476;2023-07-31T07:17:46;23.76;68.52
68867;SHT30;56451;44.804;20.476;2023-07-31T07:20:12;23.83;68.60
68867;SHT30;56451;44.804;20.476;2023-07-31T07:22:38;23.89;68.38
68867;SHT30;56451;44.804;20.476;2023-07-31T07:25:04;23.99;68.54
68867;SHT30;56451;44.804;20.476;2023-07-31T07:27:31;24.13;68.29
68867;SHT30;56451;44.804;20.476;2023-07-31T07:29:56;24.22;67.36
68867;SHT30;56451;44.804;20.476;2023-07-31T07:32:22;24.31;66.74
68867;SHT30;56451;44.804;20.476;2023-07-31T07:34:49;24.37;65.34
68867;SHT30;56451;44.804;20.476;2023-07-31T07:37:14;24.37;65.18
68867;SHT30;56451;44.804;20.476;2023-07-31T07:39:41;24.34;65.91
68867;SHT30;56451;44.804;20.476;2023-07-31T07:42:06;24.42;65.23
68867;SHT30;56451;44.804;20.476;2023-07-31T07:44:32;24.48;64.94
68867;SHT30;56451;44.804;20.476;2023-07-31T07:46:58;24.55;64.71
68867;SHT30;56451;44.804;20.476;2023-07-31T07:49:24;24.61;64.01
68867;SHT30;56451;44.804;20.476;2023-07-31T07:51:50;24.71;63.82
68867;SHT30;56451;44.804;20.476;2023-07-31T07:54:16;24.82;63.66
68867;SHT30;56451;44.804;20.476;2023-07-31T07:56:46;24.90;62.58
68867;SHT30;56451;44.804;20.476;2023-07-31T07:59:12;24.95;62.74
68867;SHT30;56451;44.804;20.476;2023-07-31T08:01:38;25.02;62.57
68867;SHT30;56451;44.804;20.476;2023-07-31T08:04:04;25.09;60.01
68867;SHT30;56451;44.804;20.476;2023-07-31T08:06:30;25.05;60.27
68867;SHT30;56451;44.804;20.476;2023-07-31T08:08:57;25.02;60.91
68867;SHT30;56451;44.804;20.476;2023-07-31T08:11:23;25.02;61.53
68867;SHT30;56451;44.804;20.476;2023-07-31T08:13:49;25.03;60.76
68867;SHT30;56451;44.804;20.476;2023-07-31T08:16:15;25.06;60.87
68867;SHT30;56451;44.804;20.476;2023-07-31T08:18:41;25.02;60.57
68867;SHT30;56451;44.804;20.476;2023-07-31T08:21:10;25.00;61.00
68867;SHT30;56451;44.804;20.476;2023-07-31T08:23:36;25.00;61.79
68867;SHT30;56451;44.804;20.476;2023-07-31T08:26:02;24.96;62.15
68867;SHT30;56451;44.804;20.476;2023-07-31T08:28:27;24.89;62.46
68867;SHT30;56451;44.804;20.476;2023-07-31T08:30:53;24.87;62.90
68867;SHT30;56451;44.804;20.476;2023-07-31T08:33:19;24.85;63.38
68867;SHT30;56451;44.804;20.476;2023-07-31T08:35:45;24.82;63.44
68867;SHT30;56451;44.804;20.476;2023-07-31T08:38:12;24.87;63.49
68867;SHT30;56451;44.804;20.476;2023-07-31T08:40:38;24.86;64.14
68867;SHT30;56451;44.804;20.476;2023-07-31T08:43:04;24.86;64.39
68867;SHT30;56451;44.804;20.476;2023-07-31T08:45:30;24.83;63.96
68867;SHT30;56451;44.804;20.476;2023-07-31T08:47:58;24.78;63.99
68867;SHT30;56451;44.804;20.476;2023-07-31T08:50:24;24.75;64.51
68867;SHT30;56451;44.804;20.476;2023-07-31T08:52:52;24.79;64.03
68867;SHT30;56451;44.804;20.476;2023-07-31T08:55:18;24.83;64.44
68867;SHT30;56451;44.804;20.476;2023-07-31T08:57:51;24.89;64.41
68867;SHT30;56451;44.804;20.476;2023-07-31T09:00:19;24.99;63.48
68867;SHT30;56451;44.804;20.476;2023-07-31T09:05:18;25.13;64.46
68867;SHT30;56451;44.804;20.476;2023-07-31T09:07:47;25.16;63.31
68867;SHT30;56451;44.804;20.476;2023-07-31T09:10:13;25.20;63.23
68867;SHT30;56451;44.804;20.476;2023-07-31T09:12:39;25.28;62.99
68867;SHT30;56451;44.804;20.476;2023-07-31T09:15:06;25.26;62.60
68867;SHT30;56451;44.804;20.476;2023-07-31T09:17:34;25.31;62.50
68867;SHT30;56451;44.804;20.476;2023-07-31T09:20:13;25.35;60.65
68867;SHT30;56451;44.804;20.476;2023-07-31T09:22:40;25.41;61.23
68867;SHT30;56451;44.804;20.476;2023-07-31T09:25:18;25.47;61.08
68867;SHT30;56451;44.804;20.476;2023-07-31T09:27:53;25.48;61.01
68867;SHT30;56451;44.804;20.476;2023-07-31T09:30:20;25.48;61.00
68867;SHT30;56451;44.804;20.476;2023-07-31T09:32:48;25.47;60.88
68867;SHT30;56451;44.804;20.476;2023-07-31T09:35:19;25.48;61.41
68867;SHT30;56451;44.804;20.476;2023-07-31T09:37:52;25.45;60.82
68867;SHT30;56451;44.804;20.476;2023-07-31T09:40:32;25.40;61.24
68867;SHT30;56451;44.804;20.476;2023-07-31T09:43:03;25.47;59.74
68867;SHT30;56451;44.804;20.476;2023-07-31T09:45:30;25.50;59.27
68867;SHT30;56451;44.804;20.476;2023-07-31T09:47:56;25.55;59.26
68867;SHT30;56451;44.804;20.476;2023-07-31T09:50:24;25.58;58.89
68867;SHT30;56451;44.804;20.476;2023-07-31T09:52:53;25.67;58.72
68867;SHT30;56451;44.804;20.476;2023-07-31T09:55:19;25.77;59.23
68867;SHT30;56451;44.804;20.476;2023-07-31T09:57:49;25.81;58.48
68867;SHT30;56451;44.804;20.476;2023-07-31T10:00:17;25.82;58.72
68867;SHT30;56451;44.804;20.476;2023-07-31T10:02:46;25.82;58.93
68867;SHT30;56451;44.804;20.476;2023-07-31T10:05:15;25.86;57.29
68867;SHT30;56451;44.804;20.476;2023-07-31T10:07:53;25.86;55.50
68867;SHT30;56451;44.804;20.476;2023-07-31T10:10:21;25.88;55.99
68867;SHT30;56451;44.804;20.476;2023-07-31T10:12:48;25.95;55.76
68867;SHT30;56451;44.804;20.476;2023-07-31T10:15:16;26.03;54.67
68867;SHT30;56451;44.804;20.476;2023-07-31T10:17:42;26.06;55.75
68867;SHT30;56451;44.804;20.476;2023-07-31T10:20:09;26.16;55.25
68867;SHT30;56451;44.804;20.476;2023-07-31T10:22:35;26.25;53.62
68867;SHT30;56451;44.804;20.476;2023-07-31T10:25:02;26.25;54.54
68867;SHT30;56451;44.804;20.476;2023-07-31T10:27:28;26.32;54.64
68867;SHT30;56451;44.804;20.476;2023-07-31T10:29:58;26.44;53.23
68867;SHT30;56451;44.804;20.476;2023-07-31T10:32:25;26.46;52.81
68867;SHT30;56451;44.804;20.476;2023-07-31T10:34:52;26.57;52.87
68867;SHT30;56451;44.804;20.476;2023-07-31T10:37:22;26.63;51.86
68867;SHT30;56451;44.804;20.476;2023-07-31T10:40:05;26.64;51.03
68867;SHT30;56451;44.804;20.476;2023-07-31T10:42:34;26.64;48.06
68867;SHT30;56451;44.804;20.476;2023-07-31T10:45:03;26.63;48.79
68867;SHT30;56451;44.804;20.476;2023-07-31T10:47:29;26.71;49.09
68867;SHT30;56451;44.804;20.476;2023-07-31T10:50:18;26.80;47.45
68867;SHT30;56451;44.804;20.476;2023-07-31T10:52:51;26.84;46.15
68867;SHT30;56451;44.804;20.476;2023-07-31T10:55:41;26.87;45.34
68867;SHT30;56451;44.804;20.476;2023-07-31T10:58:10;26.86;45.05
68867;SHT30;56451;44.804;20.476;2023-07-31T11:00:41;26.88;45.25
68867;SHT30;56451;44.804;20.476;2023-07-31T11:03:19;26.90;44.37
68867;SHT30;56451;44.804;20.476;2023-07-31T11:06:03;26.97;44.73
68867;SHT30;56451;44.804;20.476;2023-07-31T11:08:31;27.05;44.31
68867;SHT30;56451;44.804;20.476;2023-07-31T11:11:10;27.12;44.45
68867;SHT30;56451;44.804;20.476;2023-07-31T11:13:46;27.19;44.04
68867;SHT30;56451;44.804;20.476;2023-07-31T11:16:17;27.22;42.01
68867;SHT30;56451;44.804;20.476;2023-07-31T11:18:44;27.19;42.00
68867;SHT30;56451;44.804;20.476;2023-07-31T11:21:15;27.22;42.06
68867;SHT30;56451;44.804;20.476;2023-07-31T11:23:46;27.22;40.32
68867;SHT30;56451;44.804;20.476;2023-07-31T11:26:14;27.15;39.25
68867;SHT30;56451;44.804;20.476;2023-07-31T11:28:40;27.14;41.87
68867;SHT30;56451;44.804;20.476;2023-07-31T11:31:11;27.12;40.69
68867;SHT30;56451;44.804;20.476;2023-07-31T11:33:37;27.18;40.17
68867;SHT30;56451;44.804;20.476;2023-07-31T11:36:04;27.18;40.41
68867;SHT30;56451;44.804;20.476;2023-07-31T11:38:32;27.18;39.88
68867;SHT30;56451;44.804;20.476;2023-07-31T11:41:00;27.18;39.96
68867;SHT30;56451;44.804;20.476;2023-07-31T11:43:28;27.24;39.42
68867;SHT30;56451;44.804;20.476;2023-07-31T11:45:56;27.29;38.71
68867;SHT30;56451;44.804;20.476;2023-07-31T11:50:50;27.39;39.46
68867;SHT30;56451;44.804;20.476;2023-07-31T11:53:19;27.36;39.69
68867;SHT30;56451;44.804;20.476;2023-07-31T11:55:46;27.39;39.04
68867;SHT30;56451;44.804;20.476;2023-07-31T11:58:13;27.41;40.61
68867;SHT30;56451;44.804;20.476;2023-07-31T12:00:40;27.45;38.90
68867;SHT30;56451;44.804;20.476;2023-07-31T12:03:06;27.50;37.60
68867;SHT30;56451;44.804;20.476;2023-07-31T12:05:32;27.57;38.02
68867;SHT30;56451;44.804;20.476;2023-07-31T12:07:58;27.60;37.80
68867;SHT30;56451;44.804;20.476;2023-07-31T12:10:28;27.69;38.15
68867;SHT30;56451;44.804;20.476;2023-07-31T12:13:03;27.71;38.88
68867;SHT30;56451;44.804;20.476;2023-07-31T12:15:43;27.76;38.96
68867;SHT30;56451;44.804;20.476;2023-07-31T12:18:11;27.80;39.56
68867;SHT30;56451;44.804;20.476;2023-07-31T12:20:42;27.87;39.02
68867;SHT30;56451;44.804;20.476;2023-07-31T12:23:14;27.89;38.16
68867;SHT30;56451;44.804;20.476;2023-07-31T12:25:40;27.87;38.47
68867;SHT30;56451;44.804;20.476;2023-07-31T12:28:07;27.90;38.10
68867;SHT30;56451;44.804;20.476;2023-07-31T12:30:40;27.86;38.25
68867;SHT30;56451;44.804;20.476;2023-07-31T12:33:12;27.92;38.28
68867;SHT30;56451;44.804;20.476;2023-07-31T12:35:41;27.89;38.40
68867;SHT30;56451;44.804;20.476;2023-07-31T12:38:07;27.90;39.12
68867;SHT30;56451;44.804;20.476;2023-07-31T12:40:33;27.90;38.18
68867;SHT30;56451;44.804;20.476;2023-07-31T12:43:02;27.87;39.01
68867;SHT30;56451;44.804;20.476;2023-07-31T12:45:31;27.89;39.13
68867;SHT30;56451;44.804;20.476;2023-07-31T12:47:58;27.94;38.91
68867;SHT30;56451;44.804;20.476;2023-07-31T12:50:24;28.01;39.17
68867;SHT30;56451;44.804;20.476;2023-07-31T12:52:51;28.05;37.07
68867;SHT30;56451;44.804;20.476;2023-07-31T12:55:18;28.11;37.52
68867;SHT30;56451;44.804;20.476;2023-07-31T12:57:44;28.14;37.46
68867;SHT30;56451;44.804;20.476;2023-07-31T13:00:11;28.25;35.42
68867;SHT30;56451;44.804;20.476;2023-07-31T13:02:38;28.24;36.04
68867;SHT30;56451;44.804;20.476;2023-07-31T13:05:04;28.22;36.18
68867;SHT30;56451;44.804;20.476;2023-07-31T13:07:31;28.27;36.64
68867;SHT30;56451;44.804;20.476;2023-07-31T13:09:56;28.29;36.68
68867;SHT30;56451;44.804;20.476;2023-07-31T13:12:23;28.31;36.49
68867;SHT30;56451;44.804;20.476;2023-07-31T13:14:50;28.32;36.53
68867;SHT30;56451;44.804;20.476;2023-07-31T13:17:16;28.31;36.60
68867;SHT30;56451;44.804;20.476;2023-07-31T13:19:42;28.34;36.98
68867;SHT30;56451;44.804;20.476;2023-07-31T13:22:08;28.40;36.44
68867;SHT30;56451;44.804;20.476;2023-07-31T13:24:34;28.38;36.48
68867;SHT30;56451;44.804;20.476;2023-07-31T13:27:00;28.41;36.85
68867;SHT30;56451;44.804;20.476;2023-07-31T13:29:25;28.45;37.03
68867;SHT30;56451;44.804;20.476;2023-07-31T13:31:52;28.52;36.14
68867;SHT30;56451;44.804;20.476;2023-07-31T13:34:18;28.59;36.14
68867;SHT30;56451;44.804;20.476;2023-07-31T13:36:44;28.61;36.22
68867;SHT30;56451;44.804;20.476;2023-07-31T13:39:10;28.61;35.71
68867;SHT30;56451;44.804;20.476;2023-07-31T13:41:36;28.61;36.10
68867;SHT30;56451;44.804;20.476;2023-07-31T13:44:02;28.66;35.39
68867;SHT30;56451;44.804;20.476;2023-07-31T13:46:28;28.75;34.51
68867;SHT30;56451;44.804;20.476;2023-07-31T13:48:54;28.76;34.90
68867;SHT30;56451;44.804;20.476;2023-07-31T13:51:21;28.79;34.87
68867;SHT30;56451;44.804;20.476;2023-07-31T13:53:47;28.79;35.21
68867;SHT30;56451;44.804;20.476;2023-07-31T13:56:13;28.83;35.40
68867;SHT30;56451;44.804;20.476;2023-07-31T13:58:39;28.86;35.36
68867;SHT30;56451;44.804;20.476;2023-07-31T14:01:05;28.86;35.19
68867;SHT30;56451;44.804;20.476;2023-07-31T14:03:31;28.90;35.35
68867;SHT30;56451;44.804;20.476;2023-07-31T14:05:58;28.90;35.87
68867;SHT30;56451;44.804;20.476;2023-07-31T14:08:24;28.99;35.38
68867;SHT30;56451;44.804;20.476;2023-07-31T14:10:49;29.02;35.94
68867;SHT30;56451;44.804;20.476;2023-07-31T14:13:16;29.04;35.04
68867;SHT30;56451;44.804;20.476;2023-07-31T14:15:42;29.06;34.95
68867;SHT30;56451;44.804;20.476;2023-07-31T14:18:11;28.99;34.76
68867;SHT30;56451;44.804;20.476;2023-07-31T14:20:37;28.99;34.84
68867;SHT30;56451;44.804;20.476;2023-07-31T14:23:03;28.99;35.20
68867;SHT30;56451;44.804;20.476;2023-07-31T14:25:29;29.00;34.22
68867;SHT30;56451;44.804;20.476;2023-07-31T14:27:55;28.98;34.28
68867;SHT30;56451;44.804;20.476;2023-07-31T14:30:21;29.00;34.18
68867;SHT30;56451;44.804;20.476;2023-07-31T14:32:47;29.06;34.70
68867;SHT30;56451;44.804;20.476;2023-07-31T14:35:13;29.14;34.60
68867;SHT30;56451;44.804;20.476;2023-07-31T14:37:40;29.16;34.24
68867;SHT30;56451;44.804;20.476;2023-07-31T14:40:08;29.09;34.47
68867;SHT30;56451;44.804;20.476;2023-07-31T14:42:35;29.07;34.64
68867;SHT30;56451;44.804;20.476;2023-07-31T14:45:01;29.02;34.65
68867;SHT30;56451;44.804;20.476;2023-07-31T14:47:27;29.03;34.79
68867;SHT30;56451;44.804;20.476;2023-07-31T14:49:53;29.06;34.44
68867;SHT30;56451;44.804;20.476;2023-07-31T14:52:19;29.13;34.12
68867;SHT30;56451;44.804;20.476;2023-07-31T14:54:45;29.19;33.83
68867;SHT30;56451;44.804;20.476;2023-07-31T14:57:11;29.23;33.60
68867;SHT30;56451;44.804;20.476;2023-07-31T14:59:37;29.29;34.16
68867;SHT30;56451;44.804;20.476;2023-07-31T15:02:03;29.30;34.24
68867;SHT30;56451;44.804;20.476;2023-07-31T15:04:29;29.37;34.08
68867;SHT30;56451;44.804;20.476;2023-07-31T15:06:55;29.38;34.41
68867;SHT30;56451;44.804;20.476;2023-07-31T15:09:21;29.38;34.40
68867;SHT30;56451;44.804;20.476;2023-07-31T15:11:47;29.31;34.63
68867;SHT30;56451;44.804;20.476;2023-07-31T15:14:13;29.19;35.28
68867;SHT30;56451;44.804;20.476;2023-07-31T15:16:39;29.10;35.57
68867;SHT30;56451;44.804;20.476;2023-07-31T15:19:05;29.04;36.08
68867;SHT30;56451;44.804;20.476;2023-07-31T15:21:31;29.07;36.12
68867;SHT30;56451;44.804;20.476;2023-07-31T15:23:57;29.10;36.36
68867;SHT30;56451;44.804;20.476;2023-07-31T15:26:23;29.11;36.48
68867;SHT30;56451;44.804;20.476;2023-07-31T15:28:51;29.17;36.27